HECA/CAI METAR and TAF weather

Enter ICAO airport designator
Station Type Date Time Source
HECA METAR 2021/09/28 15:30 UTC NOAA

HECA 281530Z 30009KT CAVOK 29/15 Q1012 NOSIG


Station Type Date Time Source
HECA Decoded METAR 2021/09/28 15:30 UTC NOAA

Cairo Airport, Egypt (HECA) 30-08N 031-24E 74M
Sep 28, 2021 - 11:30 AM EDT / 2021.09.28 1530 UTC
Wind: from the WNW (300 degrees) at 10 MPH (9 KT):0
Visibility: greater than 7 mile(s):0
Temperature: 84 F (29 C)
Dew Point: 59 F (15 C)
Relative Humidity: 42%
Pressure (altimeter): 29.88 in. Hg (1012 hPa)
ob: HECA 281530Z 30009KT CAVOK 29/15 Q1012 NOSIG
cycle: 15

Station Type Date Time Source
HECA TAF 2021/09/28 12:31 UTC NOAA

TAF HECA 281100Z 2812/2918 30012KT 9999 SCT025

Example: see airport list